createdAt,value
2023-01-21T00:00:17.631Z,-1.60
2023-01-21T00:15:43.209Z,-1.70
2023-01-21T00:30:47.567Z,-1.66
2023-01-21T00:45:53.092Z,-1.74
2023-01-21T01:01:03.653Z,-1.69
2023-01-21T01:16:08.183Z,-1.77
2023-01-21T01:31:13.666Z,-1.86
2023-01-21T01:46:18.676Z,-1.85
2023-01-21T02:01:22.782Z,-1.80
2023-01-21T02:16:46.829Z,-1.76
2023-01-21T02:32:01.472Z,-1.83
2023-01-21T02:47:06.010Z,-1.80
2023-01-21T03:02:13.794Z,-1.82
2023-01-21T03:17:23.168Z,-1.92
2023-01-21T03:32:27.245Z,-1.89
2023-01-21T03:47:35.500Z,-1.99
2023-01-21T04:02:39.605Z,-2.18
2023-01-21T04:17:44.666Z,-2.16
2023-01-21T04:32:48.583Z,-2.16
2023-01-21T04:47:54.199Z,-2.21
2023-01-21T05:02:58.380Z,-2.28
2023-01-21T05:18:03.358Z,-2.20
2023-01-21T05:33:07.363Z,-2.23
2023-01-21T05:48:12.013Z,-2.16
2023-01-21T06:03:16.596Z,-2.07
2023-01-21T06:18:20.962Z,-1.98
2023-01-21T06:33:24.888Z,-2.00
2023-01-21T06:48:29.500Z,-1.81
2023-01-21T07:03:34.801Z,-1.67
2023-01-21T07:18:39.774Z,-1.65
2023-01-21T07:33:50.161Z,-1.73
2023-01-21T07:48:54.697Z,-1.61
2023-01-21T08:04:15.685Z,-1.46
2023-01-21T08:19:37.651Z,-1.34
2023-01-21T08:34:41.797Z,-1.34
2023-01-21T08:50:04.634Z,-1.20
2023-01-21T09:05:08.611Z,-1.05
2023-01-21T09:20:13.873Z,-1.05
2023-01-21T09:35:18.437Z,-0.94
2023-01-21T09:50:39.849Z,-0.76
2023-01-21T10:06:39.869Z,-0.41
2023-01-21T10:21:50.053Z,-0.14
2023-01-21T10:37:12.128Z,-0.01
2023-01-21T10:52:21.862Z,0.16
2023-01-21T11:07:26.028Z,0.37
2023-01-21T11:22:31.958Z,0.54
2023-01-21T11:37:36.702Z,0.59
2023-01-21T11:52:42.692Z,0.46
2023-01-21T12:07:48.837Z,0.52
2023-01-21T12:22:57.341Z,1.00
2023-01-21T12:38:01.896Z,0.97
2023-01-21T12:53:39.364Z,0.86
2023-01-21T13:08:56.923Z,0.96
2023-01-21T13:24:41.904Z,0.84
2023-01-21T13:40:07.117Z,0.82
2023-01-21T13:55:30.156Z,0.86
2023-01-21T14:10:49.065Z,0.75
2023-01-21T14:26:03.288Z,0.50
2023-01-21T14:41:07.775Z,0.26
2023-01-21T14:56:32.572Z,0.11
2023-01-21T15:11:39.501Z,-0.01
2023-01-21T15:27:03.043Z,-0.05
2023-01-21T15:42:13.951Z,-0.12
2023-01-21T15:57:22.885Z,-0.24
2023-01-21T16:12:30.770Z,-0.22
2023-01-21T16:27:35.676Z,-0.16
2023-01-21T16:42:41.698Z,-0.15
2023-01-21T16:58:04.283Z,-0.09
2023-01-21T17:13:25.329Z,-0.05
2023-01-21T17:28:29.612Z,-0.20
2023-01-21T17:43:33.738Z,-0.11
2023-01-21T17:58:48.725Z,0.01
2023-01-21T18:13:52.901Z,0.02
2023-01-21T18:28:57.532Z,0.11
2023-01-21T18:44:01.354Z,0.02
2023-01-21T18:59:24.262Z,-0.02
2023-01-21T19:14:28.124Z,0.12
2023-01-21T19:29:33.779Z,0.08
2023-01-21T19:44:39.689Z,0.02
2023-01-21T19:59:44.582Z,-0.10
2023-01-21T20:14:48.711Z,-0.12
2023-01-21T20:30:14.837Z,-0.05
2023-01-21T20:45:18.912Z,0.08
2023-01-21T21:00:24.720Z,0.14
2023-01-21T21:15:31.339Z,0.14
2023-01-21T21:30:36.163Z,0.08
2023-01-21T21:46:00.049Z,-0.04
2023-01-21T22:01:15.067Z,-0.10
2023-01-21T22:16:36.105Z,-0.03
2023-01-21T22:31:58.748Z,0.12
2023-01-21T22:47:20.101Z,0.10
2023-01-21T23:02:26.007Z,0.11
2023-01-21T23:17:30.008Z,0.23
2023-01-21T23:32:34.727Z,0.33
2023-01-21T23:47:38.580Z,0.13
